الصفحة الرئيسية
METAR-TAF:

METAR-TAF

مطار :

سكاكا, السعودية

مطار الجوف المحلي

دائرة عرض: 29-47N, خط طول: 040-06E, ارتفاع: 689 متر

مراقبة الطقس الحالي

تاريخ ووقت الإصدار 34 دقيقة قبل الساعة 08:00UTC
ريح 10 عقدة من الشرق/الجنوب الشرقي
درجة الحرارة 42°درجة مئوية
الرطوبة 8%
ضغط 1008 hPa
الرؤية 10 كم أو أكثر
الغيوم لا تقل 1500 م ولا وجود لمزنة ركامية السحاب الأسود

METAR: OESK 270800Z 11010KT CAVOK 42/01 Q1008 NOSIG

زمن: 11:34 (08:34 UTC)

توقعات

تاريخ ووقت الإصدار 9ساعات و 34 دقيقة قبل الساعة 23:00UTC
التوقعات صالحة من27 الساعة 00 UTC إلى 28 الساعة 06 UTC
ريح 3 عقدةمن اتجاهات متغيرة
الرؤية: 7000 متر
غيوم متفرقة على ارتفاع 4000 قدم
غيوم مفككة على ارتفاع 10000 قدم
أصبح
من 27 الساعة 06 UTC إلى 27 الساعة 08 UTC
ريح 12 عقدة من الشرق/الشمال الشرقي
مؤقت
من 27 الساعة 06 UTC إلى 27 الساعة 12 UTC
الرؤية: 3000 متر
غبار

TAF: OESK 262300Z 2700/2806 VRB03KT 7000 SCT040 BKN100 BECMG 2706/2708 06012KT TEMPO 2706/2712 3000 DU

أرصاد الطقس والتوقعات من أكثر من 4000 مطار (تقارير الطقس للمطار METAR والتنبؤ بالطقس بالمطارTAF).

المحطات المتاحة هي النقط الصفراء والحمراء على الخريطة.

حرك المؤشر فوق النقطة لمعرفة اسم المحطة.

ثم انقر لمعرفة أرصاد وتوقعات الطقس.

لتغيير الخارطة: اضغط على الأزرار الخضراء مع رمز الصليب الأسود للتكبير. على الزر الأخضر مع شرطة للتصغير، أو على الأسهم الخضراء للخرائط المجاورة.


METAR-TAF: